createdAt,value
2022-11-26T00:02:12.580Z,7.58
2022-11-26T00:04:40.690Z,7.60
2022-11-26T00:07:10.126Z,7.54
2022-11-26T00:09:38.240Z,7.49
2022-11-26T00:12:17.262Z,7.57
2022-11-26T00:14:45.363Z,7.50
2022-11-26T00:17:14.132Z,7.52
2022-11-26T00:19:42.904Z,7.37
2022-11-26T00:22:22.522Z,7.47
2022-11-26T00:24:51.383Z,7.43
2022-11-26T00:27:28.944Z,7.28
2022-11-26T00:29:57.064Z,7.27
2022-11-26T00:32:26.712Z,7.32
2022-11-26T00:34:55.300Z,7.29
2022-11-26T00:37:25.607Z,7.37
2022-11-26T00:39:55.112Z,7.45
2022-11-26T00:42:25.083Z,7.30
2022-11-26T00:44:53.046Z,7.28
2022-11-26T00:47:20.989Z,7.36
2022-11-26T00:49:49.000Z,7.25
2022-11-26T00:52:28.338Z,7.30
2022-11-26T00:54:56.427Z,7.25
2022-11-26T00:57:26.056Z,7.28
2022-11-26T00:59:53.973Z,7.44
2022-11-26T01:02:21.944Z,7.40
2022-11-26T01:04:49.928Z,7.34
2022-11-26T01:07:17.936Z,7.26
2022-11-26T01:09:48.208Z,7.27
2022-11-26T01:12:16.197Z,7.29
2022-11-26T01:14:45.527Z,7.28
2022-11-26T01:17:13.479Z,7.33
2022-11-26T01:19:41.373Z,7.36
2022-11-26T01:22:19.920Z,7.28
2022-11-26T01:24:48.148Z,7.22
2022-11-26T01:27:16.465Z,7.18
2022-11-26T01:29:45.973Z,7.12
2022-11-26T01:32:14.013Z,7.08
2022-11-26T01:34:41.897Z,7.16
2022-11-26T01:37:15.063Z,7.17
2022-11-26T01:39:42.937Z,7.04
2022-11-26T01:42:23.789Z,7.01
2022-11-26T01:44:53.415Z,6.94
2022-11-26T01:47:24.203Z,7.08
2022-11-26T01:50:29.692Z,7.04
2022-11-26T01:53:00.617Z,6.94
2022-11-26T01:55:34.011Z,7.02
2022-11-26T01:58:02.142Z,6.97
2022-11-26T02:00:31.412Z,6.99
2022-11-26T02:02:59.398Z,6.99
2022-11-26T02:05:30.731Z,6.95
2022-11-26T02:07:59.025Z,7.02
2022-11-26T02:10:26.958Z,6.98
2022-11-26T02:12:54.991Z,6.94
2022-11-26T02:15:27.970Z,6.82
2022-11-26T02:18:02.617Z,6.78
2022-11-26T02:20:44.247Z,6.84
2022-11-26T02:23:48.631Z,6.72
2022-11-26T02:26:47.959Z,6.71
2022-11-26T02:29:21.945Z,6.69
2022-11-26T02:31:56.921Z,6.77
2022-11-26T02:34:36.948Z,6.74
2022-11-26T02:37:09.047Z,6.71
2022-11-26T02:39:37.053Z,6.74
2022-11-26T02:42:24.724Z,6.86
2022-11-26T02:44:54.567Z,6.75
2022-11-26T02:47:27.078Z,6.79
2022-11-26T02:49:58.161Z,6.65
2022-11-26T02:52:29.146Z,6.54
2022-11-26T02:54:58.273Z,6.53
2022-11-26T02:57:31.150Z,6.55
2022-11-26T02:59:59.394Z,6.59
2022-11-26T03:02:35.351Z,6.63
2022-11-26T03:05:06.111Z,6.59
2022-11-26T03:07:36.569Z,6.54
2022-11-26T03:10:06.410Z,6.57
2022-11-26T03:12:34.435Z,6.61
2022-11-26T03:15:02.733Z,6.55
2022-11-26T03:17:32.034Z,6.51
2022-11-26T03:20:00.146Z,6.41
2022-11-26T03:22:28.068Z,6.44
2022-11-26T03:24:56.087Z,6.43
2022-11-26T03:27:24.065Z,6.35
2022-11-26T03:29:52.018Z,6.31
2022-11-26T03:32:20.000Z,6.34
2022-11-26T03:34:49.384Z,6.31
2022-11-26T03:37:17.442Z,6.35
2022-11-26T03:39:45.536Z,6.29
2022-11-26T03:42:13.532Z,6.27
2022-11-26T03:44:41.440Z,6.33
2022-11-26T03:47:09.465Z,6.31
2022-11-26T03:49:37.438Z,6.26
2022-11-26T03:52:06.797Z,6.28
2022-11-26T03:54:34.920Z,6.24
2022-11-26T03:57:03.154Z,6.23
2022-11-26T03:59:31.335Z,6.14
2022-11-26T04:01:59.894Z,6.15
2022-11-26T04:04:28.078Z,6.10
2022-11-26T04:06:56.000Z,5.96
2022-11-26T04:09:25.730Z,5.83
2022-11-26T04:11:53.733Z,5.73
2022-11-26T04:14:21.645Z,5.68
2022-11-26T04:16:49.675Z,5.57
2022-11-26T04:19:17.701Z,5.67
2022-11-26T04:21:45.652Z,5.65
2022-11-26T04:24:13.559Z,5.58
2022-11-26T04:26:42.924Z,5.52
2022-11-26T04:29:10.995Z,5.48
2022-11-26T04:31:39.037Z,5.50
2022-11-26T04:34:07.103Z,5.43
2022-11-26T04:36:35.551Z,5.43
2022-11-26T04:39:03.640Z,5.40
2022-11-26T04:41:31.670Z,5.33
2022-11-26T04:44:01.010Z,5.29
2022-11-26T04:46:28.998Z,5.22
2022-11-26T04:48:57.053Z,5.06
2022-11-26T04:51:24.985Z,5.02
2022-11-26T04:53:55.723Z,5.00
2022-11-26T04:56:24.578Z,4.96
2022-11-26T04:58:52.573Z,4.94
2022-11-26T05:01:21.986Z,4.86
2022-11-26T05:03:50.586Z,4.78
2022-11-26T05:06:18.729Z,4.75
2022-11-26T05:08:46.676Z,4.72
2022-11-26T05:11:17.139Z,4.59
2022-11-26T05:13:45.120Z,4.60
2022-11-26T05:16:13.144Z,4.60
2022-11-26T05:18:42.451Z,4.62
2022-11-26T05:21:10.392Z,4.59
2022-11-26T05:23:38.371Z,4.60
2022-11-26T05:26:06.563Z,4.61
2022-11-26T05:28:34.481Z,4.61
2022-11-26T05:31:04.074Z,4.62
2022-11-26T05:33:32.409Z,4.77
2022-11-26T05:36:01.764Z,4.77
2022-11-26T05:38:29.852Z,4.71
2022-11-26T05:40:57.758Z,4.75
2022-11-26T05:43:25.709Z,4.71
2022-11-26T05:45:53.680Z,4.74
2022-11-26T05:48:21.693Z,4.69
2022-11-26T05:50:54.376Z,4.65
2022-11-26T05:53:23.856Z,4.70
2022-11-26T05:55:51.787Z,4.73
2022-11-26T05:58:19.894Z,4.69
2022-11-26T06:00:47.791Z,4.69
2022-11-26T06:03:20.077Z,4.74
2022-11-26T06:05:48.603Z,4.68
2022-11-26T06:08:16.527Z,4.58
2022-11-26T06:10:46.193Z,4.52
2022-11-26T06:13:14.126Z,4.46
2022-11-26T06:15:42.044Z,4.42
2022-11-26T06:18:09.960Z,4.40
2022-11-26T06:20:38.308Z,4.37
2022-11-26T06:23:06.424Z,4.40
2022-11-26T06:25:34.528Z,4.36
2022-11-26T06:28:03.890Z,4.27
2022-11-26T06:30:31.842Z,4.32
2022-11-26T06:32:59.761Z,4.27
2022-11-26T06:35:27.770Z,4.24
2022-11-26T06:37:55.667Z,4.40
2022-11-26T06:40:23.704Z,4.46
2022-11-26T06:42:52.784Z,4.38
2022-11-26T06:45:23.082Z,4.37
2022-11-26T06:47:52.792Z,4.33
2022-11-26T06:50:23.897Z,4.33
2022-11-26T06:52:56.481Z,4.32
2022-11-26T06:55:24.365Z,4.32
2022-11-26T06:57:53.237Z,4.31
2022-11-26T07:00:23.128Z,4.31
2022-11-26T07:02:51.125Z,4.32
2022-11-26T07:05:19.286Z,4.30
2022-11-26T07:07:47.266Z,4.27
2022-11-26T07:10:15.340Z,4.25
2022-11-26T07:12:43.345Z,4.31
2022-11-26T07:15:12.784Z,4.35
2022-11-26T07:17:42.045Z,4.32
2022-11-26T07:20:10.546Z,4.36
2022-11-26T07:22:38.675Z,4.67
2022-11-26T07:25:12.171Z,4.73
2022-11-26T07:27:40.844Z,4.89
2022-11-26T07:30:10.235Z,4.92
2022-11-26T07:32:38.211Z,5.07
2022-11-26T07:35:08.092Z,5.03
2022-11-26T07:37:36.637Z,5.03
2022-11-26T07:40:05.795Z,5.15
2022-11-26T07:42:34.403Z,5.19
2022-11-26T07:45:03.682Z,5.26
2022-11-26T07:47:31.595Z,5.34
2022-11-26T07:49:59.515Z,5.44
2022-11-26T07:52:28.755Z,5.56
2022-11-26T07:54:56.666Z,5.56
2022-11-26T07:57:25.258Z,5.80
2022-11-26T07:59:53.312Z,5.90
2022-11-26T08:02:21.267Z,6.11
2022-11-26T08:04:49.437Z,6.30
2022-11-26T08:07:24.325Z,6.64
2022-11-26T08:09:57.013Z,6.70
2022-11-26T08:12:26.336Z,6.67
2022-11-26T08:14:54.239Z,6.94
2022-11-26T08:17:22.213Z,7.02
2022-11-26T08:19:50.150Z,7.04
2022-11-26T08:22:18.059Z,7.18
2022-11-26T08:24:46.034Z,7.38
2022-11-26T08:27:15.276Z,7.57
2022-11-26T08:29:43.187Z,7.69
2022-11-26T08:32:11.228Z,7.77
2022-11-26T08:34:39.781Z,7.86
2022-11-26T08:37:08.003Z,7.90
2022-11-26T08:39:35.914Z,7.97
2022-11-26T08:42:03.930Z,7.87
2022-11-26T08:44:33.235Z,8.04
2022-11-26T08:47:10.819Z,8.28
2022-11-26T08:49:38.830Z,8.35
2022-11-26T08:52:06.829Z,8.31
2022-11-26T08:54:34.723Z,8.28
2022-11-26T08:57:02.744Z,8.32
2022-11-26T08:59:30.673Z,8.53
2022-11-26T09:02:00.055Z,8.51
2022-11-26T09:04:28.000Z,9.05
2022-11-26T09:06:55.927Z,9.01
2022-11-26T09:09:23.947Z,9.55
2022-11-26T09:11:54.994Z,10.88
2022-11-26T09:14:25.738Z,12.91
2022-11-26T09:16:54.685Z,12.50
2022-11-26T09:19:24.688Z,12.38
2022-11-26T09:21:52.593Z,12.88
2022-11-26T09:24:21.313Z,14.60
2022-11-26T09:26:49.689Z,17.40
2022-11-26T09:29:19.793Z,19.13
2022-11-26T09:32:21.918Z,19.29
2022-11-26T09:34:38.834Z,20.21
2022-11-26T09:37:07.283Z,20.12
2022-11-26T09:39:35.172Z,20.25
2022-11-26T09:42:07.190Z,19.85
2022-11-26T09:45:01.801Z,21.29
2022-11-26T09:47:36.764Z,22.14
2022-11-26T09:50:20.260Z,21.75
2022-11-26T09:52:54.242Z,22.07
2022-11-26T09:55:25.348Z,21.04
2022-11-26T09:58:03.594Z,20.09
2022-11-26T10:00:34.580Z,17.13
2022-11-26T10:03:02.761Z,16.27
2022-11-26T10:05:45.463Z,17.78
2022-11-26T10:08:37.045Z,19.99
2022-11-26T10:11:11.375Z,17.72
2022-11-26T10:13:46.230Z,17.03
2022-11-26T10:16:24.622Z,18.64
2022-11-26T10:19:03.483Z,19.71
2022-11-26T10:21:58.111Z,20.28
2022-11-26T10:24:30.963Z,19.64
2022-11-26T10:27:02.347Z,18.54
2022-11-26T10:29:37.358Z,17.27
2022-11-26T10:32:15.470Z,17.38
2022-11-26T10:34:50.568Z,18.45
2022-11-26T10:37:22.110Z,16.53
2022-11-26T10:39:55.433Z,15.32
2022-11-26T10:42:26.831Z,14.63
2022-11-26T10:44:55.050Z,13.46
2022-11-26T10:47:27.072Z,13.07
2022-11-26T10:49:56.900Z,12.89
2022-11-26T10:52:29.450Z,12.93
2022-11-26T10:55:25.674Z,13.24
2022-11-26T10:57:57.431Z,13.09
2022-11-26T11:00:38.016Z,13.82
2022-11-26T11:03:15.401Z,13.73
2022-11-26T11:05:45.714Z,12.74
2022-11-26T11:08:16.323Z,12.73
2022-11-26T11:10:55.996Z,12.87
2022-11-26T11:13:25.477Z,12.74
2022-11-26T11:16:02.560Z,13.61
2022-11-26T11:18:31.096Z,13.95
2022-11-26T11:21:03.165Z,13.81
2022-11-26T11:24:06.590Z,14.09
2022-11-26T11:26:28.309Z,14.60
2022-11-26T11:28:58.123Z,13.81
2022-11-26T11:31:28.773Z,13.22
2022-11-26T11:34:13.986Z,14.07
2022-11-26T11:36:41.949Z,16.44
2022-11-26T11:39:28.977Z,17.40
2022-11-26T11:41:57.721Z,16.55
2022-11-26T11:44:32.570Z,16.98
2022-11-26T11:47:15.847Z,17.38
2022-11-26T11:49:56.169Z,17.17
2022-11-26T11:52:32.289Z,17.45
2022-11-26T11:55:10.989Z,17.83
2022-11-26T11:57:53.009Z,18.21
2022-11-26T12:00:24.132Z,16.55
2022-11-26T12:03:31.429Z,14.54
2022-11-26T12:06:15.460Z,13.64
2022-11-26T12:08:59.073Z,13.35
2022-11-26T12:11:39.506Z,13.38
2022-11-26T12:14:14.288Z,12.95
2022-11-26T12:16:48.066Z,13.31
2022-11-26T12:19:26.495Z,13.15
2022-11-26T12:22:00.569Z,13.28
2022-11-26T12:24:37.923Z,12.74
2022-11-26T12:27:19.191Z,12.67
2022-11-26T12:29:51.065Z,12.76
2022-11-26T12:32:22.199Z,12.64
2022-11-26T12:34:52.751Z,12.72
2022-11-26T12:37:22.680Z,12.97
2022-11-26T12:39:55.031Z,13.05
2022-11-26T12:42:30.129Z,12.90
2022-11-26T12:45:07.383Z,13.22
2022-11-26T12:47:39.408Z,13.57
2022-11-26T12:50:18.163Z,13.28
2022-11-26T12:52:56.684Z,12.73
2022-11-26T12:55:29.526Z,12.88
2022-11-26T12:58:05.381Z,12.89
2022-11-26T13:00:36.568Z,12.79
2022-11-26T13:03:06.783Z,13.10
2022-11-26T13:05:48.609Z,12.85
2022-11-26T13:08:34.444Z,12.54
2022-11-26T13:11:16.512Z,12.81
2022-11-26T13:13:54.058Z,13.03
2022-11-26T13:16:34.905Z,12.87
2022-11-26T13:19:09.085Z,13.51
2022-11-26T13:22:05.893Z,13.12
2022-11-26T13:24:51.851Z,12.78
2022-11-26T13:27:33.049Z,12.55
2022-11-26T13:30:21.142Z,12.29
2022-11-26T13:33:24.952Z,12.17
2022-11-26T13:36:10.629Z,11.75
2022-11-26T13:38:50.460Z,11.75
2022-11-26T13:41:35.946Z,11.81
2022-11-26T13:44:34.059Z,11.84
2022-11-26T13:47:07.557Z,11.51
2022-11-26T13:49:38.994Z,11.49
2022-11-26T13:52:13.511Z,11.46
2022-11-26T13:54:46.413Z,11.49
2022-11-26T13:57:16.979Z,11.35
2022-11-26T13:59:49.915Z,11.30
2022-11-26T14:02:44.498Z,11.18
2022-11-26T14:05:15.123Z,11.08
2022-11-26T14:07:44.562Z,11.03
2022-11-26T14:10:41.243Z,11.06
2022-11-26T14:13:13.809Z,11.00
2022-11-26T14:15:56.912Z,10.88
2022-11-26T14:19:00.748Z,10.88
2022-11-26T14:21:30.636Z,10.62
2022-11-26T14:24:00.899Z,10.72
2022-11-26T14:26:34.058Z,10.80
2022-11-26T14:29:12.699Z,10.76
2022-11-26T14:31:44.172Z,10.64
2022-11-26T14:34:19.005Z,10.56
2022-11-26T14:36:56.497Z,10.49
2022-11-26T14:39:24.903Z,10.35
2022-11-26T14:41:57.889Z,10.20
2022-11-26T14:44:30.202Z,10.11
2022-11-26T14:47:01.741Z,10.06
2022-11-26T14:49:36.862Z,9.92
2022-11-26T14:52:14.932Z,9.90
2022-11-26T14:54:43.443Z,9.75
2022-11-26T14:57:17.019Z,9.66
2022-11-26T14:59:56.565Z,9.57
2022-11-26T15:02:26.173Z,9.43
2022-11-26T15:05:04.605Z,9.35
2022-11-26T15:07:33.239Z,9.15
2022-11-26T15:10:03.412Z,9.06
2022-11-26T15:12:32.389Z,8.97
2022-11-26T15:15:02.735Z,8.75
2022-11-26T15:17:33.450Z,8.72
2022-11-26T15:20:07.696Z,8.60
2022-11-26T15:22:39.230Z,8.49
2022-11-26T15:25:13.598Z,8.40
2022-11-26T15:27:52.260Z,8.33
2022-11-26T15:30:22.601Z,8.24
2022-11-26T15:32:58.362Z,8.13
2022-11-26T15:35:28.153Z,8.08
2022-11-26T15:37:56.220Z,8.02
2022-11-26T15:40:26.803Z,7.98
2022-11-26T15:42:58.223Z,7.89
2022-11-26T15:45:35.934Z,7.79
2022-11-26T15:48:04.839Z,7.67
2022-11-26T15:50:38.282Z,7.77
2022-11-26T15:53:08.841Z,7.74
2022-11-26T15:55:38.654Z,7.67
2022-11-26T15:58:11.772Z,7.63
2022-11-26T16:00:41.429Z,7.59
2022-11-26T16:03:34.625Z,7.61
2022-11-26T16:06:08.340Z,7.62
2022-11-26T16:08:36.367Z,7.58
2022-11-26T16:11:09.525Z,7.54
2022-11-26T16:13:37.778Z,7.31
2022-11-26T16:16:11.335Z,7.39
2022-11-26T16:18:43.171Z,7.37
2022-11-26T16:21:19.712Z,7.35
2022-11-26T16:23:53.812Z,7.32
2022-11-26T16:26:21.769Z,7.28
2022-11-26T16:28:49.746Z,7.19
2022-11-26T16:31:19.159Z,7.14
2022-11-26T16:33:47.442Z,7.14
2022-11-26T16:36:25.826Z,7.06
2022-11-26T16:38:54.237Z,7.06
2022-11-26T16:41:23.624Z,7.11
2022-11-26T16:43:51.717Z,7.05
2022-11-26T16:46:23.354Z,7.08
2022-11-26T16:48:52.174Z,7.08
2022-11-26T16:51:20.897Z,7.12
2022-11-26T16:53:50.536Z,7.14
2022-11-26T16:56:21.895Z,7.02
2022-11-26T16:58:50.300Z,6.96
2022-11-26T17:01:18.562Z,7.07
2022-11-26T17:03:46.591Z,7.05
2022-11-26T17:06:16.680Z,7.12
2022-11-26T17:08:49.498Z,7.25
2022-11-26T17:11:19.699Z,7.28
2022-11-26T17:13:47.706Z,7.30
2022-11-26T17:16:17.758Z,7.30
2022-11-26T17:18:46.076Z,7.28
2022-11-26T17:21:14.525Z,7.15
2022-11-26T17:23:42.673Z,7.19
2022-11-26T17:26:16.749Z,7.20
2022-11-26T17:28:46.078Z,7.23
2022-11-26T17:31:14.252Z,7.20
2022-11-26T17:33:42.278Z,7.23
2022-11-26T17:36:18.985Z,7.22
2022-11-26T17:38:47.864Z,7.28
2022-11-26T17:41:16.572Z,7.23
2022-11-26T17:43:46.085Z,7.32
2022-11-26T17:46:17.269Z,7.22
2022-11-26T17:48:45.551Z,7.28
2022-11-26T17:51:14.898Z,7.16
2022-11-26T17:53:43.374Z,7.23
2022-11-26T17:56:19.089Z,7.34
2022-11-26T17:58:48.673Z,7.36
2022-11-26T18:01:17.522Z,7.45
2022-11-26T18:03:45.710Z,7.54
2022-11-26T18:06:16.977Z,7.45
2022-11-26T18:08:45.391Z,7.53
2022-11-26T18:11:14.385Z,7.52
2022-11-26T18:13:42.314Z,7.47
2022-11-26T18:16:11.847Z,7.48
2022-11-26T18:18:39.909Z,7.45
2022-11-26T18:21:08.062Z,7.44
2022-11-26T18:23:36.069Z,7.43
2022-11-26T18:26:04.018Z,7.54
2022-11-26T18:28:31.994Z,7.47
2022-11-26T18:31:00.382Z,7.56
2022-11-26T18:33:29.846Z,7.59
2022-11-26T18:35:57.907Z,7.52
2022-11-26T18:38:28.926Z,7.50
2022-11-26T18:41:00.990Z,7.50
2022-11-26T18:43:29.194Z,7.41
2022-11-26T18:45:57.147Z,7.43
2022-11-26T18:48:25.201Z,7.47
2022-11-26T18:50:58.436Z,7.43
2022-11-26T18:53:27.342Z,7.45
2022-11-26T18:55:55.656Z,7.46
2022-11-26T18:58:24.428Z,7.47
2022-11-26T19:00:54.470Z,7.48
2022-11-26T19:03:22.380Z,7.49
2022-11-26T19:05:51.807Z,7.49
2022-11-26T19:08:22.273Z,7.41
2022-11-26T19:10:50.680Z,7.44
2022-11-26T19:13:18.725Z,7.36
2022-11-26T19:15:47.340Z,7.32
2022-11-26T19:18:16.303Z,7.21
2022-11-26T19:20:49.172Z,7.26
2022-11-26T19:23:17.503Z,7.26
2022-11-26T19:25:47.060Z,7.27
2022-11-26T19:28:15.684Z,7.33
2022-11-26T19:30:43.715Z,7.17
2022-11-26T19:33:11.915Z,7.22
2022-11-26T19:35:40.717Z,7.22
2022-11-26T19:38:08.697Z,7.24
2022-11-26T19:40:38.915Z,7.11
2022-11-26T19:43:08.248Z,7.17
2022-11-26T19:45:36.338Z,7.18
2022-11-26T19:48:04.711Z,7.15
2022-11-26T19:50:32.622Z,7.14
2022-11-26T19:53:00.606Z,7.11
2022-11-26T19:55:28.555Z,7.16
2022-11-26T19:57:56.615Z,7.12
2022-11-26T20:00:26.053Z,7.08
2022-11-26T20:02:54.152Z,6.92
2022-11-26T20:05:22.317Z,7.17
2022-11-26T20:07:50.509Z,7.05
2022-11-26T20:10:18.694Z,7.08
2022-11-26T20:12:46.695Z,7.09
2022-11-26T20:15:14.985Z,7.08
2022-11-26T20:17:44.313Z,7.12
2022-11-26T20:20:14.642Z,7.13
2022-11-26T20:22:43.549Z,7.16
2022-11-26T20:25:13.551Z,7.14
2022-11-26T20:27:43.150Z,7.09
2022-11-26T20:30:12.376Z,7.04
2022-11-26T20:32:40.588Z,7.02
2022-11-26T20:35:10.288Z,6.97
2022-11-26T20:37:38.284Z,6.96
2022-11-26T20:40:07.702Z,6.93
2022-11-26T20:42:35.862Z,6.89
2022-11-26T20:45:03.949Z,6.86
2022-11-26T20:47:32.099Z,6.78
2022-11-26T20:50:00.107Z,6.79
2022-11-26T20:52:30.881Z,6.74
2022-11-26T20:54:58.847Z,6.74
2022-11-26T20:57:27.034Z,6.72
2022-11-26T20:59:55.003Z,6.73
2022-11-26T21:02:22.980Z,6.68
2022-11-26T21:04:50.941Z,6.61
2022-11-26T21:07:18.997Z,6.61
2022-11-26T21:09:48.412Z,6.60
2022-11-26T21:12:16.403Z,6.60
2022-11-26T21:14:44.346Z,6.56
2022-11-26T21:17:14.088Z,6.54
2022-11-26T21:19:42.264Z,6.48
2022-11-26T21:22:10.303Z,6.49
2022-11-26T21:24:38.525Z,6.44
2022-11-26T21:27:07.968Z,6.37
2022-11-26T21:29:36.143Z,6.37
2022-11-26T21:32:04.076Z,6.39
2022-11-26T21:34:32.043Z,6.34
2022-11-26T21:36:59.960Z,6.43
2022-11-26T21:39:28.068Z,6.36
2022-11-26T21:41:56.064Z,6.30
2022-11-26T21:44:25.355Z,6.21
2022-11-26T21:46:53.542Z,6.18
2022-11-26T21:49:21.610Z,6.17
2022-11-26T21:51:49.552Z,6.06
2022-11-26T21:54:17.467Z,6.05
2022-11-26T21:56:45.449Z,6.00
2022-11-26T21:59:13.358Z,6.02
2022-11-26T22:01:42.883Z,6.00
2022-11-26T22:04:14.463Z,6.01
2022-11-26T22:06:43.512Z,6.04
2022-11-26T22:09:12.577Z,6.03
2022-11-26T22:11:42.339Z,5.97
2022-11-26T22:14:13.602Z,6.00
2022-11-26T22:16:43.365Z,5.92
2022-11-26T22:19:11.606Z,5.90
2022-11-26T22:21:41.891Z,5.83
2022-11-26T22:24:14.815Z,5.80
2022-11-26T22:26:43.667Z,5.80
2022-11-26T22:29:12.358Z,5.78
2022-11-26T22:31:40.573Z,5.72
2022-11-26T22:34:13.997Z,5.73
2022-11-26T22:36:43.506Z,5.71
2022-11-26T22:39:13.491Z,5.72
2022-11-26T22:41:43.161Z,5.74
2022-11-26T22:44:12.662Z,5.66
2022-11-26T22:46:40.576Z,5.67
2022-11-26T22:49:13.527Z,5.61
2022-11-26T22:51:41.555Z,5.57
2022-11-26T22:54:12.712Z,5.61
2022-11-26T22:56:41.071Z,5.57
2022-11-26T22:59:11.868Z,5.62
2022-11-26T23:01:39.919Z,5.62
2022-11-26T23:04:11.027Z,5.68
2022-11-26T23:06:40.284Z,5.58
2022-11-26T23:09:10.731Z,5.61
2022-11-26T23:11:41.310Z,5.56
2022-11-26T23:14:11.954Z,5.64
2022-11-26T23:16:43.081Z,5.63
2022-11-26T23:19:14.716Z,5.55
2022-11-26T23:21:44.677Z,5.58
2022-11-26T23:24:13.453Z,5.46
2022-11-26T23:26:42.264Z,5.58
2022-11-26T23:29:11.835Z,5.61
2022-11-26T23:31:41.729Z,5.55
2022-11-26T23:34:11.003Z,5.48
2022-11-26T23:36:40.627Z,5.36
2022-11-26T23:39:11.836Z,5.44
2022-11-26T23:41:39.795Z,5.43
2022-11-26T23:44:07.720Z,5.41
2022-11-26T23:46:36.275Z,5.39
2022-11-26T23:49:05.291Z,5.19
2022-11-26T23:51:34.191Z,5.33
2022-11-26T23:54:03.517Z,5.23
2022-11-26T23:56:33.406Z,5.28
2022-11-26T23:59:02.753Z,5.27
